createdAt,value
2023-02-01T00:01:09.792Z,28.63
2023-02-01T00:03:37.899Z,30.15
2023-02-01T00:06:05.846Z,27.70
2023-02-01T00:08:33.331Z,27.42
2023-02-01T00:11:08.787Z,27.77
2023-02-01T00:13:40.184Z,24.95
2023-02-01T00:16:17.347Z,26.67
2023-02-01T00:18:47.140Z,26.80
2023-02-01T00:21:17.532Z,27.95
2023-02-01T00:23:46.352Z,27.00
2023-02-01T00:26:36.268Z,27.33
2023-02-01T00:29:08.231Z,26.50
2023-02-01T00:31:35.671Z,28.92
2023-02-01T00:34:03.475Z,27.45
2023-02-01T00:36:30.955Z,29.63
2023-02-01T00:38:58.363Z,25.05
2023-02-01T00:41:26.837Z,27.38
2023-02-01T00:43:54.067Z,27.23
2023-02-01T00:46:22.777Z,26.20
2023-02-01T00:51:25.122Z,24.02
2023-02-01T00:53:52.488Z,24.15
2023-02-01T00:56:20.726Z,24.80
2023-02-01T00:58:48.313Z,26.20
2023-02-01T01:01:24.850Z,25.13
2023-02-01T01:03:59.833Z,24.60
2023-02-01T01:09:05.275Z,23.48
2023-02-01T01:11:37.837Z,24.23
2023-02-01T01:14:10.075Z,26.33
2023-02-01T01:16:37.587Z,20.90
2023-02-01T01:19:05.095Z,23.05
2023-02-01T01:21:32.930Z,22.77
2023-02-01T01:24:00.350Z,21.38
2023-02-01T01:26:30.817Z,22.77
2023-02-01T01:29:00.260Z,21.90
2023-02-01T01:31:28.400Z,22.70
2023-02-01T01:33:59.611Z,21.58
2023-02-01T01:36:28.720Z,20.63
2023-02-01T01:38:56.007Z,20.48
2023-02-01T01:41:32.055Z,18.98
2023-02-01T01:44:27.652Z,19.98
2023-02-01T01:46:55.116Z,20.42
2023-02-01T01:49:27.069Z,20.27
2023-02-01T01:52:02.518Z,21.50
2023-02-01T01:54:42.174Z,19.17
2023-02-01T01:57:39.460Z,18.90
2023-02-01T02:00:18.813Z,19.08
2023-02-01T02:02:50.180Z,21.52
2023-02-01T02:05:19.437Z,20.40
2023-02-01T02:07:50.507Z,20.85
2023-02-01T02:10:18.430Z,22.92
2023-02-01T02:12:48.956Z,21.30
2023-02-01T02:15:18.140Z,20.50
2023-02-01T02:18:26.880Z,20.20
2023-02-01T02:21:43.135Z,19.50
2023-02-01T02:24:36.010Z,18.98
2023-02-01T02:27:25.750Z,20.00
2023-02-01T02:30:48.119Z,19.02
2023-02-01T02:33:57.101Z,18.35
2023-02-01T02:37:25.716Z,16.88
2023-02-01T02:40:16.205Z,19.38
2023-02-01T02:43:51.907Z,19.02
2023-02-01T02:46:59.803Z,17.02
2023-02-01T02:50:10.932Z,19.15
2023-02-01T02:53:10.324Z,19.00
2023-02-01T02:55:39.158Z,18.85
2023-02-01T02:58:26.859Z,18.75
2023-02-01T03:01:14.576Z,19.40
2023-02-01T03:04:00.868Z,17.88
2023-02-01T03:06:28.623Z,18.23
2023-02-01T03:08:59.445Z,18.00
2023-02-01T03:11:50.297Z,19.58
2023-02-01T03:14:21.761Z,18.98
2023-02-01T03:16:59.788Z,18.98
2023-02-01T03:19:36.783Z,18.02
2023-02-01T03:22:09.945Z,20.23
2023-02-01T03:24:53.005Z,18.70
2023-02-01T03:27:37.084Z,15.75
2023-02-01T03:30:24.136Z,18.05
2023-02-01T03:33:02.633Z,19.38
2023-02-01T03:36:04.099Z,18.23
2023-02-01T03:39:10.301Z,16.20
2023-02-01T03:41:56.843Z,17.92
2023-02-01T03:45:19.422Z,19.63
2023-02-01T03:47:54.459Z,19.00
2023-02-01T03:50:24.863Z,18.40
2023-02-01T03:53:03.756Z,18.90
2023-02-01T03:55:33.765Z,19.98
2023-02-01T03:58:19.489Z,19.05
2023-02-01T04:00:58.757Z,19.08
2023-02-01T04:03:28.359Z,20.67
2023-02-01T04:05:56.033Z,20.52
2023-02-01T04:08:27.442Z,18.38
2023-02-01T04:10:54.683Z,17.48
2023-02-01T04:13:21.930Z,17.08
2023-02-01T04:15:50.810Z,17.48
2023-02-01T04:18:18.140Z,18.98
2023-02-01T04:20:45.948Z,16.50
2023-02-01T04:23:13.266Z,16.63
2023-02-01T04:25:40.520Z,15.82
2023-02-01T04:28:08.547Z,16.95
2023-02-01T04:30:35.936Z,17.60
2023-02-01T04:33:06.229Z,18.80
2023-02-01T04:35:34.272Z,15.93
2023-02-01T04:38:02.047Z,17.33
2023-02-01T04:40:29.308Z,16.55
2023-02-01T04:42:56.640Z,15.43
2023-02-01T04:45:23.799Z,17.15
2023-02-01T04:47:56.073Z,15.82
2023-02-01T04:50:24.893Z,16.33
2023-02-01T04:55:19.475Z,15.38
2023-02-01T04:57:46.732Z,17.15
2023-02-01T05:00:14.862Z,15.13
2023-02-01T05:02:42.056Z,15.60
2023-02-01T05:05:09.917Z,15.30
2023-02-01T05:07:37.161Z,14.85
2023-02-01T05:10:04.892Z,15.85
2023-02-01T05:12:50.956Z,14.55
2023-02-01T05:15:18.248Z,14.93
2023-02-01T05:17:45.458Z,14.65
2023-02-01T05:20:13.011Z,14.50
2023-02-01T05:22:40.230Z,14.30
2023-02-01T05:25:08.563Z,14.98
2023-02-01T05:27:36.006Z,15.75
2023-02-01T05:30:06.469Z,14.73
2023-02-01T05:32:34.014Z,14.55
2023-02-01T05:35:01.669Z,14.75
2023-02-01T05:37:29.283Z,13.95
2023-02-01T05:39:56.500Z,15.00
2023-02-01T05:42:23.755Z,16.95
2023-02-01T05:44:50.993Z,20.35
2023-02-01T05:47:18.635Z,19.80
2023-02-01T05:49:45.869Z,25.63
2023-02-01T05:52:13.179Z,20.27
2023-02-01T05:54:40.504Z,18.08
2023-02-01T05:57:09.399Z,15.20
2023-02-01T05:59:41.946Z,14.07
2023-02-01T06:02:10.949Z,16.90
2023-02-01T06:04:38.876Z,15.32
2023-02-01T06:07:08.659Z,13.55
2023-02-01T06:09:37.377Z,15.13
2023-02-01T06:12:05.634Z,13.48
2023-02-01T06:14:32.871Z,13.43
2023-02-01T06:17:00.089Z,12.50
2023-02-01T06:19:27.487Z,13.07
2023-02-01T06:21:55.056Z,13.32
2023-02-01T06:24:23.349Z,13.20
2023-02-01T06:26:50.653Z,15.43
2023-02-01T06:29:17.964Z,14.35
2023-02-01T06:31:45.270Z,15.18
2023-02-01T06:34:12.503Z,14.52
2023-02-01T06:36:41.016Z,14.77
2023-02-01T06:39:08.255Z,13.27
2023-02-01T06:41:35.804Z,15.07
2023-02-01T06:44:03.217Z,14.77
2023-02-01T06:46:30.586Z,14.70
2023-02-01T06:48:57.811Z,15.57
2023-02-01T06:51:29.307Z,12.95
2023-02-01T06:53:57.573Z,15.35
2023-02-01T06:56:25.703Z,14.98
2023-02-01T06:58:53.122Z,13.80
2023-02-01T07:01:21.084Z,15.25
2023-02-01T07:03:52.129Z,15.48
2023-02-01T07:06:20.505Z,14.52
2023-02-01T07:08:47.952Z,14.75
2023-02-01T07:11:17.913Z,13.50
2023-02-01T07:13:46.231Z,14.63
2023-02-01T07:16:20.762Z,14.73
2023-02-01T07:18:50.185Z,14.18
2023-02-01T07:21:17.647Z,15.27
2023-02-01T07:23:44.964Z,16.67
2023-02-01T07:26:14.789Z,14.77
2023-02-01T07:28:42.432Z,15.95
2023-02-01T07:31:14.542Z,17.00
2023-02-01T07:33:42.975Z,13.80
2023-02-01T07:36:16.226Z,14.10
2023-02-01T07:38:44.459Z,11.98
2023-02-01T07:41:11.970Z,16.95
2023-02-01T07:43:39.506Z,13.93
2023-02-01T07:46:08.168Z,12.50
2023-02-01T07:48:35.492Z,12.68
2023-02-01T07:51:12.032Z,14.27
2023-02-01T07:53:40.112Z,13.43
2023-02-01T07:56:20.360Z,15.13
2023-02-01T07:58:53.506Z,12.60
2023-02-01T08:01:26.010Z,13.82
2023-02-01T08:04:03.163Z,12.23
2023-02-01T08:06:35.489Z,13.35
2023-02-01T08:09:04.388Z,12.70
2023-02-01T08:14:00.726Z,14.73
2023-02-01T08:16:28.303Z,11.32
2023-02-01T08:18:55.931Z,13.38
2023-02-01T08:21:37.284Z,14.07
2023-02-01T08:24:11.065Z,12.35
2023-02-01T08:26:38.761Z,12.90
2023-02-01T08:29:11.446Z,13.18
2023-02-01T08:31:41.663Z,10.45
2023-02-01T08:34:10.579Z,15.55
2023-02-01T08:39:09.932Z,17.40
2023-02-01T08:41:37.491Z,15.77
2023-02-01T08:44:06.395Z,12.90
2023-02-01T08:46:33.655Z,15.63
2023-02-01T08:49:01.922Z,14.38
2023-02-01T08:51:29.289Z,15.23
2023-02-01T08:53:57.606Z,16.63
2023-02-01T08:56:25.925Z,16.27
2023-02-01T08:58:53.272Z,17.13
2023-02-01T09:01:20.834Z,14.18
2023-02-01T09:03:48.328Z,14.63
2023-02-01T09:06:17.220Z,16.23
2023-02-01T09:08:45.463Z,14.90
2023-02-01T09:11:18.338Z,16.13
2023-02-01T09:13:46.611Z,15.00
2023-02-01T09:16:14.304Z,14.27
2023-02-01T09:18:50.763Z,13.73
2023-02-01T09:21:23.838Z,15.05
2023-02-01T09:23:53.132Z,15.77
2023-02-01T09:26:26.464Z,15.50
2023-02-01T09:28:58.718Z,14.95
2023-02-01T09:31:26.254Z,16.13
2023-02-01T09:33:53.551Z,14.25
2023-02-01T09:36:20.936Z,15.63
2023-02-01T09:38:52.735Z,14.38
2023-02-01T09:42:15.399Z,16.17
2023-02-01T09:45:09.430Z,14.73
2023-02-01T09:47:40.685Z,14.23
2023-02-01T09:50:24.786Z,15.25
2023-02-01T09:53:07.871Z,14.13
2023-02-01T09:55:52.061Z,14.13
2023-02-01T09:58:42.969Z,16.08
2023-02-01T10:01:24.683Z,14.77
2023-02-01T10:04:03.264Z,14.57
2023-02-01T10:07:17.468Z,14.20
2023-02-01T10:10:08.600Z,15.73
2023-02-01T10:13:22.600Z,10.27
2023-02-01T10:16:46.931Z,14.05
2023-02-01T10:19:48.025Z,14.00
2023-02-01T10:23:00.324Z,12.15
2023-02-01T10:26:02.232Z,13.55
2023-02-01T10:28:31.468Z,14.38
2023-02-01T10:31:00.010Z,12.60
2023-02-01T10:33:44.042Z,12.07
2023-02-01T10:36:23.395Z,10.38
2023-02-01T10:38:51.127Z,10.80
2023-02-01T10:41:23.408Z,9.27
2023-02-01T10:43:57.236Z,8.43
2023-02-01T10:46:25.361Z,7.53
2023-02-01T10:48:56.928Z,6.93
2023-02-01T10:52:03.595Z,6.85
2023-02-01T10:54:39.379Z,6.22
2023-02-01T10:57:30.594Z,8.40
2023-02-01T10:59:57.954Z,7.88
2023-02-01T11:02:34.423Z,7.53
2023-02-01T11:05:11.496Z,7.38
2023-02-01T11:07:48.063Z,5.82
2023-02-01T11:10:42.759Z,6.43
2023-02-01T11:13:19.941Z,6.68
2023-02-01T11:15:57.323Z,5.90
2023-02-01T11:18:37.763Z,7.65
2023-02-01T11:21:08.169Z,6.95
2023-02-01T11:23:45.976Z,6.13
2023-02-01T11:26:29.210Z,6.47
2023-02-01T11:29:14.674Z,5.78
2023-02-01T11:31:44.014Z,5.53
2023-02-01T11:34:25.679Z,7.40
2023-02-01T11:36:56.422Z,7.03
2023-02-01T11:39:36.856Z,6.32
2023-02-01T11:42:18.116Z,5.47
2023-02-01T11:44:48.269Z,6.15
2023-02-01T11:47:32.810Z,6.22
2023-02-01T11:50:06.029Z,6.20
2023-02-01T11:52:45.173Z,5.22
2023-02-01T11:55:30.074Z,5.90
2023-02-01T11:58:44.847Z,5.65
2023-02-01T12:01:49.227Z,5.05
2023-02-01T12:04:45.984Z,5.30
2023-02-01T12:07:24.328Z,6.18
2023-02-01T12:10:58.051Z,4.40
2023-02-01T12:14:19.773Z,5.13
2023-02-01T12:17:34.747Z,4.32
2023-02-01T12:21:11.534Z,3.90
2023-02-01T12:24:17.487Z,4.35
2023-02-01T12:27:35.134Z,3.88
2023-02-01T12:30:33.930Z,3.65
2023-02-01T12:33:42.763Z,3.83
2023-02-01T12:37:07.677Z,4.93
2023-02-01T12:40:26.526Z,4.57
2023-02-01T12:43:11.934Z,4.35
2023-02-01T12:46:05.436Z,3.83
2023-02-01T12:48:55.865Z,5.63
2023-02-01T12:51:38.567Z,4.50
2023-02-01T12:54:31.882Z,4.55
2023-02-01T12:57:08.256Z,4.50
2023-02-01T12:59:50.070Z,4.93
2023-02-01T13:03:10.036Z,3.88
2023-02-01T13:06:15.166Z,4.40
2023-02-01T13:09:11.100Z,3.90
2023-02-01T13:11:46.445Z,4.03
2023-02-01T13:14:41.154Z,4.15
2023-02-01T13:17:32.733Z,4.00
2023-02-01T13:20:38.613Z,4.38
2023-02-01T13:23:29.004Z,4.57
2023-02-01T13:25:56.626Z,5.57
2023-02-01T13:28:50.802Z,4.95
2023-02-01T13:31:55.555Z,3.97
2023-02-01T13:34:50.944Z,3.80
2023-02-01T13:37:59.965Z,4.25
2023-02-01T13:41:04.119Z,4.93
2023-02-01T13:43:32.994Z,3.22
2023-02-01T13:46:09.598Z,5.20
2023-02-01T13:49:04.074Z,4.28
2023-02-01T13:51:46.891Z,4.72
2023-02-01T13:54:40.981Z,4.32
2023-02-01T13:57:39.037Z,4.30
2023-02-01T14:00:45.475Z,4.50
2023-02-01T14:03:44.615Z,4.63
2023-02-01T14:09:20.638Z,4.40
2023-02-01T14:11:54.783Z,5.18
2023-02-01T14:14:21.893Z,4.40
2023-02-01T14:16:55.003Z,4.15
2023-02-01T14:19:28.752Z,5.32
2023-02-01T14:22:20.470Z,4.68
2023-02-01T14:24:58.016Z,4.70
2023-02-01T14:27:30.722Z,4.30
2023-02-01T14:30:13.057Z,5.03
2023-02-01T14:32:45.232Z,3.33
2023-02-01T14:35:28.876Z,3.67
2023-02-01T14:38:07.967Z,3.60
2023-02-01T14:40:36.857Z,4.65
2023-02-01T14:43:04.209Z,4.35
2023-02-01T14:45:34.390Z,4.03
2023-02-01T14:48:07.940Z,4.80
2023-02-01T14:50:43.814Z,3.60
2023-02-01T14:53:14.369Z,3.78
2023-02-01T14:55:46.679Z,3.90
2023-02-01T14:58:35.664Z,4.00
2023-02-01T15:01:56.251Z,4.22
2023-02-01T15:04:28.524Z,3.63
2023-02-01T15:07:05.756Z,3.80
2023-02-01T15:09:47.542Z,4.25
2023-02-01T15:12:18.701Z,3.75
2023-02-01T15:15:05.158Z,4.25
2023-02-01T15:17:35.039Z,4.25
2023-02-01T15:20:19.085Z,3.83
2023-02-01T15:23:17.483Z,3.63
2023-02-01T15:25:47.928Z,3.78
2023-02-01T15:28:27.694Z,3.67
2023-02-01T15:31:09.285Z,4.78
2023-02-01T15:33:36.777Z,4.00
2023-02-01T15:36:07.049Z,3.97
2023-02-01T15:38:43.559Z,4.22
2023-02-01T15:41:20.422Z,4.03
2023-02-01T15:44:10.529Z,3.35
2023-02-01T15:46:44.816Z,3.38
2023-02-01T15:49:41.454Z,4.00
2023-02-01T15:52:38.282Z,3.50
2023-02-01T15:55:19.720Z,4.07
2023-02-01T15:57:47.829Z,4.03
2023-02-01T16:00:24.270Z,3.63
2023-02-01T16:03:06.128Z,4.05
2023-02-01T16:05:45.797Z,3.83
2023-02-01T16:08:26.996Z,4.43
2023-02-01T16:11:23.996Z,4.22
2023-02-01T16:13:51.273Z,4.70
2023-02-01T16:16:18.663Z,4.60
2023-02-01T16:18:46.266Z,5.20
2023-02-01T16:21:13.758Z,4.50
2023-02-01T16:23:41.250Z,5.22
2023-02-01T16:26:08.515Z,5.20
2023-02-01T16:28:35.839Z,4.93
2023-02-01T16:31:03.623Z,4.63
2023-02-01T16:33:31.294Z,4.70
2023-02-01T16:36:01.261Z,9.68
2023-02-01T16:38:28.994Z,4.80
2023-02-01T16:40:58.531Z,5.50
2023-02-01T16:43:27.268Z,6.00
2023-02-01T16:46:01.036Z,5.40
2023-02-01T16:48:31.638Z,5.85
2023-02-01T16:51:10.447Z,6.15
2023-02-01T16:53:53.169Z,6.20
2023-02-01T16:56:26.092Z,6.07
2023-02-01T16:58:55.536Z,6.38
2023-02-01T17:01:23.200Z,17.13
2023-02-01T17:03:51.064Z,8.02
2023-02-01T17:06:25.265Z,6.75
2023-02-01T17:08:58.991Z,6.55
2023-02-01T17:11:28.132Z,7.55
2023-02-01T17:14:19.780Z,7.90
2023-02-01T17:16:50.159Z,8.10
2023-02-01T17:19:24.622Z,10.77
2023-02-01T17:21:56.950Z,15.07
2023-02-01T17:24:39.192Z,15.35
2023-02-01T17:27:15.008Z,15.75
2023-02-01T17:29:43.685Z,14.13
2023-02-01T17:34:52.583Z,15.20
2023-02-01T17:37:30.214Z,13.98
2023-02-01T17:39:58.171Z,8.73
2023-02-01T17:42:28.565Z,9.73
2023-02-01T17:45:22.600Z,7.93
2023-02-01T17:47:50.176Z,9.60
2023-02-01T17:50:17.794Z,9.40
2023-02-01T17:52:45.168Z,10.18
2023-02-01T17:55:23.346Z,11.38
2023-02-01T17:57:51.356Z,9.85
2023-02-01T18:00:20.596Z,9.43
2023-02-01T18:02:48.203Z,9.13
2023-02-01T18:05:27.582Z,8.82
2023-02-01T18:07:55.095Z,8.65
2023-02-01T18:10:22.456Z,8.68
2023-02-01T18:12:49.706Z,10.18
2023-02-01T18:15:24.876Z,9.05
2023-02-01T18:17:52.619Z,10.45
2023-02-01T18:20:24.930Z,9.00
2023-02-01T18:22:52.696Z,9.23
2023-02-01T18:25:26.098Z,9.00
2023-02-01T18:27:57.142Z,8.07
2023-02-01T18:30:30.991Z,8.52
2023-02-01T18:32:58.715Z,9.45
2023-02-01T18:35:33.935Z,8.38
2023-02-01T18:38:01.297Z,8.38
2023-02-01T18:40:58.119Z,9.30
2023-02-01T18:43:26.616Z,7.80
2023-02-01T18:45:55.030Z,8.25
2023-02-01T18:48:22.971Z,9.30
2023-02-01T18:50:57.706Z,9.05
2023-02-01T18:53:27.565Z,8.70
2023-02-01T18:55:57.587Z,8.60
2023-02-01T18:58:26.473Z,9.68
2023-02-01T19:00:58.045Z,8.27
2023-02-01T19:03:26.896Z,9.27
2023-02-01T19:05:57.682Z,7.40
2023-02-01T19:08:25.767Z,11.43
2023-02-01T19:10:54.586Z,10.65
2023-02-01T19:13:24.520Z,9.43
2023-02-01T19:15:51.984Z,9.20
2023-02-01T19:18:21.784Z,9.77
2023-02-01T19:20:51.767Z,8.88
2023-02-01T19:23:19.345Z,8.40
2023-02-01T19:25:49.325Z,10.35
2023-02-01T19:28:19.301Z,11.02
2023-02-01T19:30:46.771Z,9.35
2023-02-01T19:33:14.075Z,9.00
2023-02-01T19:35:41.714Z,12.50
2023-02-01T19:38:11.302Z,11.00
2023-02-01T19:40:38.719Z,9.50
2023-02-01T19:43:06.112Z,9.77
2023-02-01T19:45:33.436Z,10.88
2023-02-01T19:48:03.223Z,11.13
2023-02-01T19:50:30.851Z,11.23
2023-02-01T19:52:59.536Z,9.20
2023-02-01T19:57:54.213Z,9.77
2023-02-01T20:00:21.749Z,10.45
2023-02-01T20:02:49.330Z,8.68
2023-02-01T20:05:18.140Z,9.07
2023-02-01T20:07:45.483Z,8.52
2023-02-01T20:10:12.821Z,11.07
2023-02-01T20:12:40.465Z,11.65
2023-02-01T20:15:08.376Z,13.00
2023-02-01T20:17:36.467Z,12.88
2023-02-01T20:20:05.117Z,10.77
2023-02-01T20:22:32.646Z,10.02
2023-02-01T20:25:02.391Z,9.77
2023-02-01T20:27:30.921Z,9.63
2023-02-01T20:29:58.161Z,9.77
2023-02-01T20:32:25.535Z,9.73
2023-02-01T20:34:54.271Z,9.80
2023-02-01T20:39:50.147Z,9.80
2023-02-01T20:42:18.946Z,10.82
2023-02-01T20:44:50.544Z,10.00
2023-02-01T20:49:46.955Z,8.88
2023-02-01T20:52:14.378Z,11.07
2023-02-01T20:54:42.637Z,11.35
2023-02-01T20:57:11.654Z,10.43
2023-02-01T20:59:40.606Z,9.00
2023-02-01T21:02:11.814Z,7.72
2023-02-01T21:04:39.510Z,7.95
2023-02-01T21:07:06.853Z,6.75
2023-02-01T21:09:35.088Z,6.50
2023-02-01T21:12:03.927Z,6.18
2023-02-01T21:14:32.778Z,5.90
2023-02-01T21:17:04.058Z,5.70
2023-02-01T21:19:43.480Z,5.88
2023-02-01T21:22:14.947Z,4.85
2023-02-01T21:24:43.137Z,4.82
2023-02-01T21:27:11.908Z,5.10
2023-02-01T21:29:42.186Z,4.88
2023-02-01T21:32:11.157Z,4.35
2023-02-01T21:34:39.946Z,4.60
2023-02-01T21:37:08.794Z,4.75
2023-02-01T21:39:37.541Z,4.00
2023-02-01T21:44:46.246Z,4.75
2023-02-01T21:47:18.516Z,3.70
2023-02-01T21:49:49.032Z,3.97
2023-02-01T21:52:18.844Z,4.20
2023-02-01T21:54:49.115Z,3.25
2023-02-01T21:57:17.923Z,3.40
2023-02-01T21:59:46.152Z,3.58
2023-02-01T22:02:17.266Z,3.65
2023-02-01T22:04:45.157Z,3.33
2023-02-01T22:07:12.734Z,3.30
2023-02-01T22:09:40.851Z,3.20
2023-02-01T22:12:13.474Z,3.85
2023-02-01T22:14:44.698Z,3.88
2023-02-01T22:17:13.316Z,3.75
2023-02-01T22:19:42.398Z,3.70
2023-02-01T22:22:11.647Z,4.10
2023-02-01T22:24:39.014Z,4.07
2023-02-01T22:27:14.398Z,4.07
2023-02-01T22:29:43.563Z,3.60
2023-02-01T22:32:13.759Z,3.17
2023-02-01T22:34:41.263Z,3.58
2023-02-01T22:37:09.522Z,4.13
2023-02-01T22:39:37.845Z,3.13
2023-02-01T22:42:05.608Z,3.95
2023-02-01T22:44:33.059Z,3.88
2023-02-01T22:47:00.226Z,3.65
2023-02-01T22:49:27.499Z,3.33
2023-02-01T22:51:54.770Z,4.13
2023-02-01T22:54:22.508Z,3.92
2023-02-01T22:56:52.255Z,3.72
2023-02-01T22:59:19.996Z,3.78
2023-02-01T23:01:47.340Z,4.00
2023-02-01T23:04:15.452Z,4.03
2023-02-01T23:06:43.085Z,3.38
2023-02-01T23:09:25.133Z,4.32
2023-02-01T23:11:54.711Z,4.15
2023-02-01T23:14:22.220Z,4.78
2023-02-01T23:16:50.243Z,4.07
2023-02-01T23:19:18.472Z,4.90
2023-02-01T23:21:46.128Z,5.30
2023-02-01T23:24:13.572Z,4.32
2023-02-01T23:26:42.381Z,4.13
2023-02-01T23:29:18.435Z,4.80
2023-02-01T23:31:45.906Z,4.32
2023-02-01T23:34:13.118Z,4.82
2023-02-01T23:36:40.472Z,4.22
2023-02-01T23:39:07.735Z,4.88
2023-02-01T23:41:35.187Z,5.72
2023-02-01T23:44:02.441Z,5.68
2023-02-01T23:46:38.440Z,5.95
2023-02-01T23:49:08.912Z,5.45
2023-02-01T23:51:37.234Z,5.47
2023-02-01T23:54:06.111Z,5.57
2023-02-01T23:59:16.851Z,6.45
